sensor_id;sensor_type;location;lat;lon;timestamp;pressure;altitude;pressure_sealevel;temperature;humidity
10587;BME280;5341;47.606;7.576;2023-01-29T00:02:26;99776.00;;;4.25;65.84
10587;BME280;5341;47.606;7.576;2023-01-29T00:04:53;99770.69;;;4.25;65.54
10587;BME280;5341;47.606;7.576;2023-01-29T00:07:24;99771.53;;;4.26;65.89
10587;BME280;5341;47.606;7.576;2023-01-29T00:09:52;99769.94;;;4.23;65.61
10587;BME280;5341;47.606;7.576;2023-01-29T00:12:20;99775.25;;;4.23;65.66
10587;BME280;5341;47.606;7.576;2023-01-29T00:14:47;99771.75;;;4.23;65.63
10587;BME280;5341;47.606;7.576;2023-01-29T00:17:15;99777.03;;;4.23;65.69
10587;BME280;5341;47.606;7.576;2023-01-29T00:19:42;99774.41;;;4.23;65.88
10587;BME280;5341;47.606;7.576;2023-01-29T00:22:10;99768.25;;;4.22;65.46
10587;BME280;5341;47.606;7.576;2023-01-29T00:24:40;99763.94;;;4.21;65.89
10587;BME280;5341;47.606;7.576;2023-01-29T00:27:14;99768.25;;;4.22;65.44
10587;BME280;5341;47.606;7.576;2023-01-29T00:29:42;99771.88;;;4.21;65.67
10587;BME280;5341;47.606;7.576;2023-01-29T00:32:27;99781.63;;;4.21;65.48
10587;BME280;5341;47.606;7.576;2023-01-29T00:34:54;99776.31;;;4.21;65.48
10587;BME280;5341;47.606;7.576;2023-01-29T00:37:21;99780.78;;;4.20;65.81
10587;BME280;5341;47.606;7.576;2023-01-29T00:39:50;99780.78;;;4.20;65.32
10587;BME280;5341;47.606;7.576;2023-01-29T00:42:18;99776.44;;;4.19;65.44
10587;BME280;5341;47.606;7.576;2023-01-29T00:45:05;99776.44;;;4.19;65.86
10587;BME280;5341;47.606;7.576;2023-01-29T00:47:36;99779.09;;;4.19;65.83
10587;BME280;5341;47.606;7.576;2023-01-29T00:50:05;99773.81;;;4.19;65.96
10587;BME280;5341;47.606;7.576;2023-01-29T00:52:34;99775.59;;;4.19;66.10
10587;BME280;5341;47.606;7.576;2023-01-29T00:55:12;99775.47;;;4.20;65.49
10587;BME280;5341;47.606;7.576;2023-01-29T00:57:49;99772.97;;;4.19;65.56
10587;BME280;5341;47.606;7.576;2023-01-29T01:00:28;99763.34;;;4.18;66.21
10587;BME280;5341;47.606;7.576;2023-01-29T01:02:59;99770.44;;;4.17;65.86
10587;BME280;5341;47.606;7.576;2023-01-29T01:05:38;99781.88;;;4.18;65.52
10587;BME280;5341;47.606;7.576;2023-01-29T01:08:10;99780.06;;;4.18;65.54
10587;BME280;5341;47.606;7.576;2023-01-29T01:11:11;99780.19;;;4.17;65.73
10587;BME280;5341;47.606;7.576;2023-01-29T01:13:48;99774.03;;;4.16;65.31
10587;BME280;5341;47.606;7.576;2023-01-29T01:16:44;99775.84;;;4.16;66.16
10587;BME280;5341;47.606;7.576;2023-01-29T01:19:12;99782.09;;;4.15;66.06
10587;BME280;5341;47.606;7.576;2023-01-29T01:21:52;99783.06;;;4.14;65.62
10587;BME280;5341;47.606;7.576;2023-01-29T01:24:19;99783.06;;;4.14;66.02
10587;BME280;5341;47.606;7.576;2023-01-29T01:26:50;99795.34;;;4.15;65.66
10587;BME280;5341;47.606;7.576;2023-01-29T01:29:34;99788.34;;;4.14;65.80
10587;BME280;5341;47.606;7.576;2023-01-29T01:32:03;99791.00;;;4.14;65.56
10587;BME280;5341;47.606;7.576;2023-01-29T01:34:32;99790.25;;;4.11;65.62
10587;BME280;5341;47.606;7.576;2023-01-29T01:37:01;99794.63;;;4.13;65.96
10587;BME280;5341;47.606;7.576;2023-01-29T01:39:29;99791.13;;;4.12;65.89
10587;BME280;5341;47.606;7.576;2023-01-29T01:41:58;99799.91;;;4.13;65.92
10587;BME280;5341;47.606;7.576;2023-01-29T01:44:53;99801.72;;;4.12;66.04
10587;BME280;5341;47.606;7.576;2023-01-29T01:47:26;99795.53;;;4.11;65.44
10587;BME280;5341;47.606;7.576;2023-01-29T01:49:59;99793.84;;;4.10;66.20
10587;BME280;5341;47.606;7.576;2023-01-29T01:52:34;99790.38;;;4.10;66.22
10587;BME280;5341;47.606;7.576;2023-01-29T01:55:04;99794.81;;;4.09;65.70
10587;BME280;5341;47.606;7.576;2023-01-29T01:57:45;99794.69;;;4.11;65.87
10587;BME280;5341;47.606;7.576;2023-01-29T02:00:27;99793.03;;;4.10;65.39
10587;BME280;5341;47.606;7.576;2023-01-29T02:02:54;99790.38;;;4.10;65.92
10587;BME280;5341;47.606;7.576;2023-01-29T02:08:38;99797.59;;;4.08;65.66
10587;BME280;5341;47.606;7.576;2023-01-29T02:11:54;99793.25;;;4.07;65.77
10587;BME280;5341;47.606;7.576;2023-01-29T02:17:15;99794.09;;;4.07;66.00
10587;BME280;5341;47.606;7.576;2023-01-29T02:19:58;99793.25;;;4.07;65.68
10587;BME280;5341;47.606;7.576;2023-01-29T02:22:54;99791.56;;;4.06;65.96
10587;BME280;5341;47.606;7.576;2023-01-29T02:25:49;99795.06;;;4.06;65.59
10587;BME280;5341;47.606;7.576;2023-01-29T02:28:24;99789.88;;;4.05;65.38
10587;BME280;5341;47.606;7.576;2023-01-29T02:31:01;99789.03;;;4.04;65.40
10587;BME280;5341;47.606;7.576;2023-01-29T02:33:40;99785.56;;;4.04;65.96
10587;BME280;5341;47.606;7.576;2023-01-29T02:36:17;99788.22;;;4.04;65.71
10587;BME280;5341;47.606;7.576;2023-01-29T02:38:53;99789.16;;;4.03;65.54
10587;BME280;5341;47.606;7.576;2023-01-29T02:41:26;99787.47;;;4.02;65.36
10587;BME280;5341;47.606;7.576;2023-01-29T02:44:00;99798.06;;;4.02;65.91
10587;BME280;5341;47.606;7.576;2023-01-29T02:46:34;99789.28;;;4.01;65.93
10587;BME280;5341;47.606;7.576;2023-01-29T02:49:09;99791.94;;;4.01;65.58
10587;BME280;5341;47.606;7.576;2023-01-29T02:51:42;99795.41;;;4.02;65.43
10587;BME280;5341;47.606;7.576;2023-01-29T02:54:15;99791.09;;;4.01;65.70
10587;BME280;5341;47.606;7.576;2023-01-29T02:56:48;99791.09;;;4.01;65.43
10587;BME280;5341;47.606;7.576;2023-01-29T02:59:21;99793.81;;;3.99;65.57
10587;BME280;5341;47.606;7.576;2023-01-29T03:01:57;99790.34;;;3.99;65.86
10587;BME280;5341;47.606;7.576;2023-01-29T03:04:30;99793.09;;;3.97;65.42
10587;BME280;5341;47.606;7.576;2023-01-29T03:07:02;99793.94;;;3.98;65.79
10587;BME280;5341;47.606;7.576;2023-01-29T03:09:33;99788.78;;;3.96;65.46
10587;BME280;5341;47.606;7.576;2023-01-29T03:12:06;99793.22;;;3.96;65.90
10587;BME280;5341;47.606;7.576;2023-01-29T03:14:57;99792.38;;;3.95;65.98
10587;BME280;5341;47.606;7.576;2023-01-29T03:17:54;99798.75;;;3.93;65.84
10587;BME280;5341;47.606;7.576;2023-01-29T03:20:28;99795.25;;;3.92;65.50
10587;BME280;5341;47.606;7.576;2023-01-29T03:23:03;99797.91;;;3.92;65.63
10587;BME280;5341;47.606;7.576;2023-01-29T03:25:37;99809.34;;;3.93;65.63
10587;BME280;5341;47.606;7.576;2023-01-29T03:28:29;99805.97;;;3.91;66.23
10587;BME280;5341;47.606;7.576;2023-01-29T03:31:17;99808.50;;;3.92;65.99
10587;BME280;5341;47.606;7.576;2023-01-29T03:34:07;99804.28;;;3.90;66.04
10587;BME280;5341;47.606;7.576;2023-01-29T03:36:45;99804.41;;;3.88;66.26
10587;BME280;5341;47.606;7.576;2023-01-29T03:39:16;99806.16;;;3.88;65.56
10587;BME280;5341;47.606;7.576;2023-01-29T03:41:47;99800.03;;;3.87;65.72
10587;BME280;5341;47.606;7.576;2023-01-29T03:44:20;99805.31;;;3.87;66.01
10587;BME280;5341;47.606;7.576;2023-01-29T03:46:58;99805.31;;;3.87;66.30
10587;BME280;5341;47.606;7.576;2023-01-29T03:49:36;99807.97;;;3.87;65.74
10587;BME280;5341;47.606;7.576;2023-01-29T03:52:15;99807.13;;;3.87;65.71
10587;BME280;5341;47.606;7.576;2023-01-29T03:54:55;99802.78;;;3.86;66.24
10587;BME280;5341;47.606;7.576;2023-01-29T03:59:55;99802.78;;;3.86;66.01
10587;BME280;5341;47.606;7.576;2023-01-29T04:02:54;99799.31;;;3.85;65.61
10587;BME280;5341;47.606;7.576;2023-01-29T04:05:29;99795.69;;;3.86;66.36
10587;BME280;5341;47.606;7.576;2023-01-29T04:08:19;99804.59;;;3.85;65.61
10587;BME280;5341;47.606;7.576;2023-01-29T04:10:49;99797.50;;;3.86;65.73
10587;BME280;5341;47.606;7.576;2023-01-29T04:13:22;99796.66;;;3.85;66.29
10587;BME280;5341;47.606;7.576;2023-01-29T04:15:55;99796.66;;;3.85;65.74
10587;BME280;5341;47.606;7.576;2023-01-29T04:18:46;99800.25;;;3.84;65.91
10587;BME280;5341;47.606;7.576;2023-01-29T04:21:16;99796.91;;;3.82;65.84
10587;BME280;5341;47.606;7.576;2023-01-29T04:23:44;99803.88;;;3.83;65.65
10587;BME280;5341;47.606;7.576;2023-01-29T04:26:29;99805.69;;;3.82;66.21
10587;BME280;5341;47.606;7.576;2023-01-29T04:29:19;99805.69;;;3.82;65.71
10587;BME280;5341;47.606;7.576;2023-01-29T04:32:10;99802.19;;;3.82;66.45
10587;BME280;5341;47.606;7.576;2023-01-29T04:34:53;99801.34;;;3.81;65.87
10587;BME280;5341;47.606;7.576;2023-01-29T04:39:57;99803.16;;;3.81;65.62
10587;BME280;5341;47.606;7.576;2023-01-29T04:42:36;99799.66;;;3.80;66.28
10587;BME280;5341;47.606;7.576;2023-01-29T04:45:13;99801.47;;;3.80;65.71
10587;BME280;5341;47.606;7.576;2023-01-29T04:47:48;99795.31;;;3.79;65.80
10587;BME280;5341;47.606;7.576;2023-01-29T04:50:22;99798.09;;;3.78;65.70
10587;BME280;5341;47.606;7.576;2023-01-29T04:52:56;99801.59;;;3.78;66.02
10587;BME280;5341;47.606;7.576;2023-01-29T04:55:32;99800.75;;;3.78;66.17
10587;BME280;5341;47.606;7.576;2023-01-29T04:58:06;99802.44;;;3.79;66.31
10587;BME280;5341;47.606;7.576;2023-01-29T05:00:43;99797.13;;;3.79;66.43
10587;BME280;5341;47.606;7.576;2023-01-29T05:03:14;99791.84;;;3.79;65.87
10587;BME280;5341;47.606;7.576;2023-01-29T05:05:47;99793.66;;;3.78;65.94
10587;BME280;5341;47.606;7.576;2023-01-29T05:08:19;99794.47;;;3.79;65.99
10587;BME280;5341;47.606;7.576;2023-01-29T05:10:49;99797.97;;;3.79;65.98
10587;BME280;5341;47.606;7.576;2023-01-29T05:13:19;99801.47;;;3.80;65.62
10587;BME280;5341;47.606;7.576;2023-01-29T05:15:52;99804.09;;;3.80;66.37
10587;BME280;5341;47.606;7.576;2023-01-29T05:18:21;99798.94;;;3.78;66.11
10587;BME280;5341;47.606;7.576;2023-01-29T05:20:51;99804.22;;;3.78;66.12
10587;BME280;5341;47.606;7.576;2023-01-29T05:23:22;99794.59;;;3.77;65.85
10587;BME280;5341;47.606;7.576;2023-01-29T05:25:52;99796.41;;;3.77;65.62
10587;BME280;5341;47.606;7.576;2023-01-29T05:28:21;99798.09;;;3.78;65.88
10587;BME280;5341;47.606;7.576;2023-01-29T05:30:50;99797.25;;;3.77;65.75
10587;BME280;5341;47.606;7.576;2023-01-29T05:33:20;99798.22;;;3.76;65.92
10587;BME280;5341;47.606;7.576;2023-01-29T05:35:53;99805.31;;;3.76;65.71
10587;BME280;5341;47.606;7.576;2023-01-29T05:38:23;99809.63;;;3.77;65.67
10587;BME280;5341;47.606;7.576;2023-01-29T05:40:55;99822.94;;;3.75;65.69
10587;BME280;5341;47.606;7.576;2023-01-29T05:43:24;99830.88;;;3.75;65.60
10587;BME280;5341;47.606;7.576;2023-01-29T05:45:55;99826.56;;;3.74;65.87
10587;BME280;5341;47.606;7.576;2023-01-29T05:48:28;99821.38;;;3.73;65.90
10587;BME280;5341;47.606;7.576;2023-01-29T05:51:05;99826.66;;;3.73;65.71
10587;BME280;5341;47.606;7.576;2023-01-29T05:53:35;99826.78;;;3.71;65.57
10587;BME280;5341;47.606;7.576;2023-01-29T05:56:03;99825.09;;;3.70;65.90
10587;BME280;5341;47.606;7.576;2023-01-29T05:58:32;99826.91;;;3.70;66.22
10587;BME280;5341;47.606;7.576;2023-01-29T06:01:20;99827.88;;;3.69;66.10
10587;BME280;5341;47.606;7.576;2023-01-29T06:03:52;99834.13;;;3.68;66.04
10587;BME280;5341;47.606;7.576;2023-01-29T06:08:57;99836.75;;;3.68;66.11
10587;BME280;5341;47.606;7.576;2023-01-29T06:11:28;99849.13;;;3.67;66.33
10587;BME280;5341;47.606;7.576;2023-01-29T06:13:57;99845.75;;;3.65;65.90
10587;BME280;5341;47.606;7.576;2023-01-29T06:16:25;99854.53;;;3.66;65.88
10587;BME280;5341;47.606;7.576;2023-01-29T06:18:53;99857.19;;;3.66;66.21
10587;BME280;5341;47.606;7.576;2023-01-29T06:21:22;99856.34;;;3.65;65.80
10587;BME280;5341;47.606;7.576;2023-01-29T06:23:51;99859.00;;;3.65;65.58
10587;BME280;5341;47.606;7.576;2023-01-29T06:26:21;99859.00;;;3.65;65.45
10587;BME280;5341;47.606;7.576;2023-01-29T06:28:51;99852.84;;;3.65;66.29
10587;BME280;5341;47.606;7.576;2023-01-29T06:31:19;99849.38;;;3.64;66.01
10587;BME280;5341;47.606;7.576;2023-01-29T06:33:46;99852.00;;;3.64;66.21
10587;BME280;5341;47.606;7.576;2023-01-29T06:36:15;99843.13;;;3.65;65.54
10587;BME280;5341;47.606;7.576;2023-01-29T06:38:46;99828.22;;;3.64;65.53
10587;BME280;5341;47.606;7.576;2023-01-29T06:41:16;99825.56;;;3.64;65.71
10587;BME280;5341;47.606;7.576;2023-01-29T06:43:45;99823.75;;;3.65;65.50
10587;BME280;5341;47.606;7.576;2023-01-29T06:46:14;99823.84;;;3.63;65.61
10587;BME280;5341;47.606;7.576;2023-01-29T06:48:43;99820.28;;;3.64;65.34
10587;BME280;5341;47.606;7.576;2023-01-29T06:51:10;99821.19;;;3.63;66.07
10587;BME280;5341;47.606;7.576;2023-01-29T06:53:38;99830.09;;;3.62;65.92
10587;BME280;5341;47.606;7.576;2023-01-29T06:56:09;99827.56;;;3.61;65.72
10587;BME280;5341;47.606;7.576;2023-01-29T06:58:37;99830.31;;;3.59;65.82
10587;BME280;5341;47.606;7.576;2023-01-29T07:01:08;99834.66;;;3.60;65.93
10587;BME280;5341;47.606;7.576;2023-01-29T07:03:36;99837.31;;;3.60;65.95
10587;BME280;5341;47.606;7.576;2023-01-29T07:06:07;99842.59;;;3.60;66.03
10587;BME280;5341;47.606;7.576;2023-01-29T07:08:39;99847.88;;;3.60;65.89
10587;BME280;5341;47.606;7.576;2023-01-29T07:11:09;99857.63;;;3.60;66.08
10587;BME280;5341;47.606;7.576;2023-01-29T07:13:38;99854.13;;;3.59;65.83
10587;BME280;5341;47.606;7.576;2023-01-29T07:16:08;99858.47;;;3.60;65.52
10587;BME280;5341;47.606;7.576;2023-01-29T07:18:36;99859.41;;;3.59;65.85
10587;BME280;5341;47.606;7.576;2023-01-29T07:21:04;99870.00;;;3.59;65.73
10587;BME280;5341;47.606;7.576;2023-01-29T07:23:33;99869.16;;;3.59;65.71
10587;BME280;5341;47.606;7.576;2023-01-29T07:26:01;99871.91;;;3.57;65.65
10587;BME280;5341;47.606;7.576;2023-01-29T07:31:07;99871.91;;;3.57;65.74
10587;BME280;5341;47.606;7.576;2023-01-29T07:33:38;99876.25;;;3.58;65.59
10587;BME280;5341;47.606;7.576;2023-01-29T07:36:07;99885.03;;;3.59;66.11
10587;BME280;5341;47.606;7.576;2023-01-29T07:38:37;99886.81;;;3.58;65.48
10587;BME280;5341;47.606;7.576;2023-01-29T07:41:08;99892.13;;;3.58;66.03
10587;BME280;5341;47.606;7.576;2023-01-29T07:43:37;99892.97;;;3.59;66.20
10587;BME280;5341;47.606;7.576;2023-01-29T07:46:09;99885.97;;;3.58;65.79
10587;BME280;5341;47.606;7.576;2023-01-29T07:48:38;99887.91;;;3.56;65.64
10587;BME280;5341;47.606;7.576;2023-01-29T07:51:06;99894.03;;;3.56;65.76
10587;BME280;5341;47.606;7.576;2023-01-29T07:53:34;99890.78;;;3.52;66.28
10587;BME280;5341;47.606;7.576;2023-01-29T07:56:02;99889.09;;;3.51;66.09
10587;BME280;5341;47.606;7.576;2023-01-29T07:58:40;99892.66;;;3.50;65.98
10587;BME280;5341;47.606;7.576;2023-01-29T08:01:11;99894.38;;;3.51;66.15
10587;BME280;5341;47.606;7.576;2023-01-29T08:03:39;99894.38;;;3.51;66.38
10587;BME280;5341;47.606;7.576;2023-01-29T08:06:07;99896.06;;;3.52;65.98
10587;BME280;5341;47.606;7.576;2023-01-29T08:08:35;99889.81;;;3.53;66.19
10587;BME280;5341;47.606;7.576;2023-01-29T08:11:03;99884.53;;;3.53;65.91
10587;BME280;5341;47.606;7.576;2023-01-29T08:13:31;99890.53;;;3.56;66.14
10587;BME280;5341;47.606;7.576;2023-01-29T08:16:01;99893.19;;;3.56;66.05
10587;BME280;5341;47.606;7.576;2023-01-29T08:18:30;99891.38;;;3.56;66.24
10587;BME280;5341;47.606;7.576;2023-01-29T08:20:59;99882.50;;;3.57;66.22
10587;BME280;5341;47.606;7.576;2023-01-29T08:23:27;99890.44;;;3.57;66.18
10587;BME280;5341;47.606;7.576;2023-01-29T08:25:55;99899.09;;;3.59;66.43
10587;BME280;5341;47.606;7.576;2023-01-29T08:28:24;99905.22;;;3.60;66.18
10587;BME280;5341;47.606;7.576;2023-01-29T08:30:52;99906.06;;;3.60;66.19
10587;BME280;5341;47.606;7.576;2023-01-29T08:33:20;99908.59;;;3.62;66.34
10587;BME280;5341;47.606;7.576;2023-01-29T08:35:50;99917.38;;;3.62;66.32
10587;BME280;5341;47.606;7.576;2023-01-29T08:38:19;99913.91;;;3.62;65.62
10587;BME280;5341;47.606;7.576;2023-01-29T08:40:53;99916.53;;;3.62;65.48
10587;BME280;5341;47.606;7.576;2023-01-29T08:43:21;99926.28;;;3.61;66.11
10587;BME280;5341;47.606;7.576;2023-01-29T08:45:49;99928.81;;;3.63;66.19
10587;BME280;5341;47.606;7.576;2023-01-29T08:48:17;99929.66;;;3.63;65.54
10587;BME280;5341;47.606;7.576;2023-01-29T08:50:45;99934.84;;;3.65;65.99
10587;BME280;5341;47.606;7.576;2023-01-29T08:53:14;99932.09;;;3.66;66.07
10587;BME280;5341;47.606;7.576;2023-01-29T08:55:45;99934.63;;;3.68;66.29
10587;BME280;5341;47.606;7.576;2023-01-29T08:58:13;99941.72;;;3.67;66.04
10587;BME280;5341;47.606;7.576;2023-01-29T09:00:40;99935.59;;;3.67;66.33
10587;BME280;5341;47.606;7.576;2023-01-29T09:03:08;99936.44;;;3.67;66.26
10587;BME280;5341;47.606;7.576;2023-01-29T09:05:36;99933.66;;;3.69;66.38
10587;BME280;5341;47.606;7.576;2023-01-29T09:08:05;99948.59;;;3.70;66.21
10587;BME280;5341;47.606;7.576;2023-01-29T09:10:35;99948.38;;;3.73;65.91
10587;BME280;5341;47.606;7.576;2023-01-29T09:13:03;99945.72;;;3.73;66.27
10587;BME280;5341;47.606;7.576;2023-01-29T09:15:31;99943.81;;;3.75;65.87
10587;BME280;5341;47.606;7.576;2023-01-29T09:18:02;99958.81;;;3.74;66.05
10587;BME280;5341;47.606;7.576;2023-01-29T09:20:30;99948.25;;;3.74;66.35
10587;BME280;5341;47.606;7.576;2023-01-29T09:22:58;99950.91;;;3.74;65.92
10587;BME280;5341;47.606;7.576;2023-01-29T09:25:30;99956.94;;;3.76;65.77
10587;BME280;5341;47.606;7.576;2023-01-29T09:27:59;99957.78;;;3.77;66.31
10587;BME280;5341;47.606;7.576;2023-01-29T09:30:33;99958.53;;;3.79;65.96
10587;BME280;5341;47.606;7.576;2023-01-29T09:33:02;99957.69;;;3.78;66.07
10587;BME280;5341;47.606;7.576;2023-01-29T09:35:30;99956.59;;;3.81;66.28
10587;BME280;5341;47.606;7.576;2023-01-29T09:37:58;99956.59;;;3.81;65.81
10587;BME280;5341;47.606;7.576;2023-01-29T09:40:30;99959.13;;;3.82;66.28
10587;BME280;5341;47.606;7.576;2023-01-29T09:43:05;99959.88;;;3.85;66.06
10587;BME280;5341;47.606;7.576;2023-01-29T09:45:35;99966.84;;;3.86;66.18
10587;BME280;5341;47.606;7.576;2023-01-29T09:48:09;99965.88;;;3.87;65.99
10587;BME280;5341;47.606;7.576;2023-01-29T09:50:40;99967.50;;;3.89;66.05
10587;BME280;5341;47.606;7.576;2023-01-29T09:53:15;99969.06;;;3.92;66.21
10587;BME280;5341;47.606;7.576;2023-01-29T09:55:49;99961.97;;;3.92;66.07
10587;BME280;5341;47.606;7.576;2023-01-29T09:58:23;99974.13;;;3.95;65.64
10587;BME280;5341;47.606;7.576;2023-01-29T10:01:00;99973.28;;;3.94;65.67
10587;BME280;5341;47.606;7.576;2023-01-29T10:06:18;99958.13;;;3.96;65.52
10587;BME280;5341;47.606;7.576;2023-01-29T10:09:10;99951.88;;;3.97;66.04
10587;BME280;5341;47.606;7.576;2023-01-29T10:11:55;99948.28;;;3.98;66.29
10587;BME280;5341;47.606;7.576;2023-01-29T10:14:32;99934.00;;;4.01;66.29
10587;BME280;5341;47.606;7.576;2023-01-29T10:17:12;99937.28;;;4.04;65.54
10587;BME280;5341;47.606;7.576;2023-01-29T10:22:51;99941.06;;;4.13;65.95
10587;BME280;5341;47.606;7.576;2023-01-29T10:25:20;99938.06;;;4.18;65.59
10587;BME280;5341;47.606;7.576;2023-01-29T10:27:50;99941.19;;;4.23;65.91
10587;BME280;5341;47.606;7.576;2023-01-29T10:30:32;99939.91;;;4.28;65.83
10587;BME280;5341;47.606;7.576;2023-01-29T10:33:03;99942.44;;;4.30;65.65
10587;BME280;5341;47.606;7.576;2023-01-29T10:35:33;99941.13;;;4.35;66.13
10587;BME280;5341;47.606;7.576;2023-01-29T10:38:14;99933.72;;;4.40;65.47
10587;BME280;5341;47.606;7.576;2023-01-29T10:40:49;99942.38;;;4.43;65.52
10587;BME280;5341;47.606;7.576;2023-01-29T10:43:23;99938.41;;;4.48;65.38
10587;BME280;5341;47.606;7.576;2023-01-29T10:46:07;99936.28;;;4.53;65.24
10587;BME280;5341;47.606;7.576;2023-01-29T10:48:55;99926.81;;;4.62;65.42
10587;BME280;5341;47.606;7.576;2023-01-29T10:51:39;99922.00;;;4.67;65.55
10587;BME280;5341;47.606;7.576;2023-01-29T10:54:22;99913.09;;;4.68;65.21
10587;BME280;5341;47.606;7.576;2023-01-29T10:57:04;99911.03;;;4.71;64.56
10587;BME280;5341;47.606;7.576;2023-01-29T10:59:51;99908.19;;;4.75;65.34
10587;BME280;5341;47.606;7.576;2023-01-29T11:02:25;99901.91;;;4.76;65.07
10587;BME280;5341;47.606;7.576;2023-01-29T11:04:52;99900.09;;;4.76;64.75
10587;BME280;5341;47.606;7.576;2023-01-29T11:07:46;99895.41;;;4.80;64.55
10587;BME280;5341;47.606;7.576;2023-01-29T11:10:21;99884.34;;;4.86;64.63
10587;BME280;5341;47.606;7.576;2023-01-29T11:13:21;99874.34;;;4.89;64.44
10587;BME280;5341;47.606;7.576;2023-01-29T11:15:53;99872.28;;;4.93;64.25
10587;BME280;5341;47.606;7.576;2023-01-29T11:18:55;99879.78;;;4.99;64.40
10587;BME280;5341;47.606;7.576;2023-01-29T11:21:28;99876.75;;;5.04;64.27
10587;BME280;5341;47.606;7.576;2023-01-29T11:24:05;99871.72;;;5.12;64.83
10587;BME280;5341;47.606;7.576;2023-01-29T11:26:38;99874.50;;;5.21;64.23
10587;BME280;5341;47.606;7.576;2023-01-29T11:29:28;99873.63;;;5.32;64.19
10587;BME280;5341;47.606;7.576;2023-01-29T11:32:13;99878.19;;;5.41;64.57
10587;BME280;5341;47.606;7.576;2023-01-29T11:35:19;99867.25;;;5.46;63.38
10587;BME280;5341;47.606;7.576;2023-01-29T11:38:06;99856.50;;;5.47;63.64
10587;BME280;5341;47.606;7.576;2023-01-29T11:40:39;99858.91;;;5.50;63.19
10587;BME280;5341;47.606;7.576;2023-01-29T11:43:19;99866.13;;;5.59;63.34
10587;BME280;5341;47.606;7.576;2023-01-29T11:45:53;99871.91;;;5.65;62.64
10587;BME280;5341;47.606;7.576;2023-01-29T11:48:25;99873.94;;;5.72;63.05
10587;BME280;5341;47.606;7.576;2023-01-29T11:50:57;99866.44;;;5.77;62.36
10587;BME280;5341;47.606;7.576;2023-01-29T11:53:37;99868.75;;;5.82;62.04
10587;BME280;5341;47.606;7.576;2023-01-29T11:56:18;99876.19;;;5.88;61.89
10587;BME280;5341;47.606;7.576;2023-01-29T11:58:50;99876.81;;;5.92;62.02
10587;BME280;5341;47.606;7.576;2023-01-29T12:01:29;99878.41;;;5.94;61.40
10587;BME280;5341;47.606;7.576;2023-01-29T12:04:00;99863.88;;;5.98;61.65
10587;BME280;5341;47.606;7.576;2023-01-29T12:09:18;99867.84;;;6.04;62.06
10587;BME280;5341;47.606;7.576;2023-01-29T12:11:47;99863.97;;;6.08;61.50
10587;BME280;5341;47.606;7.576;2023-01-29T12:14:27;99854.66;;;6.13;61.80
10587;BME280;5341;47.606;7.576;2023-01-29T12:17:06;99849.09;;;6.16;61.04
10587;BME280;5341;47.606;7.576;2023-01-29T12:19:46;99849.69;;;6.20;61.28
10587;BME280;5341;47.606;7.576;2023-01-29T12:22:20;99849.44;;;6.23;60.93
10587;BME280;5341;47.606;7.576;2023-01-29T12:24:56;99844.81;;;6.25;60.74
10587;BME280;5341;47.606;7.576;2023-01-29T12:27:28;99845.53;;;6.27;60.64
10587;BME280;5341;47.606;7.576;2023-01-29T12:30:04;99842.03;;;6.27;60.89
10587;BME280;5341;47.606;7.576;2023-01-29T12:32:43;99847.34;;;6.27;60.99
10587;BME280;5341;47.606;7.576;2023-01-29T12:35:20;99850.84;;;6.27;60.09
10587;BME280;5341;47.606;7.576;2023-01-29T12:37:54;99846.16;;;6.31;60.31
10587;BME280;5341;47.606;7.576;2023-01-29T12:40:30;99855.66;;;6.33;60.48
10587;BME280;5341;47.606;7.576;2023-01-29T12:43:15;99845.75;;;6.35;60.11
10587;BME280;5341;47.606;7.576;2023-01-29T12:45:45;99842.13;;;6.36;60.36
10587;BME280;5341;47.606;7.576;2023-01-29T12:48:20;99843.66;;;6.39;59.88
10587;BME280;5341;47.606;7.576;2023-01-29T12:53:36;99838.16;;;6.52;60.22
10587;BME280;5341;47.606;7.576;2023-01-29T12:56:09;99830.06;;;6.53;59.27
10587;BME280;5341;47.606;7.576;2023-01-29T12:58:58;99824.50;;;6.56;59.05
10587;BME280;5341;47.606;7.576;2023-01-29T13:04:09;99825.00;;;6.50;58.69
10587;BME280;5341;47.606;7.576;2023-01-29T13:06:41;99820.94;;;6.46;58.58
10587;BME280;5341;47.606;7.576;2023-01-29T13:09:14;99814.78;;;6.45;59.26
10587;BME280;5341;47.606;7.576;2023-01-29T13:11:49;99814.91;;;6.44;59.01
10587;BME280;5341;47.606;7.576;2023-01-29T13:14:23;99812.50;;;6.41;58.65
10587;BME280;5341;47.606;7.576;2023-01-29T13:16:59;99816.25;;;6.38;58.18
10587;BME280;5341;47.606;7.576;2023-01-29T13:19:35;99808.69;;;6.34;58.27
10587;BME280;5341;47.606;7.576;2023-01-29T13:22:16;99806.03;;;6.34;58.68
10587;BME280;5341;47.606;7.576;2023-01-29T13:24:46;99805.06;;;6.35;58.55
10587;BME280;5341;47.606;7.576;2023-01-29T13:27:30;99800.59;;;6.35;58.06
10587;BME280;5341;47.606;7.576;2023-01-29T13:29:58;99795.41;;;6.34;58.48
10587;BME280;5341;47.606;7.576;2023-01-29T13:32:34;99803.25;;;6.35;58.22
10587;BME280;5341;47.606;7.576;2023-01-29T13:35:03;99797.66;;;6.38;58.72
10587;BME280;5341;47.606;7.576;2023-01-29T13:37:32;99790.25;;;6.42;58.38
10587;BME280;5341;47.606;7.576;2023-01-29T13:40:02;99777.72;;;6.44;59.19
10587;BME280;5341;47.606;7.576;2023-01-29T13:45:01;99780.09;;;6.47;58.47
10587;BME280;5341;47.606;7.576;2023-01-29T13:47:30;99769.47;;;6.47;58.43
10587;BME280;5341;47.606;7.576;2023-01-29T13:50:00;99778.56;;;6.44;58.45
10587;BME280;5341;47.606;7.576;2023-01-29T13:52:34;99766.34;;;6.42;58.50
10587;BME280;5341;47.606;7.576;2023-01-29T13:55:07;99771.78;;;6.40;58.51
10587;BME280;5341;47.606;7.576;2023-01-29T13:57:47;99767.31;;;6.41;58.36
10587;BME280;5341;47.606;7.576;2023-01-29T14:03:51;99756.00;;;6.39;58.28
10587;BME280;5341;47.606;7.576;2023-01-29T14:06:44;99751.66;;;6.38;58.26
10587;BME280;5341;47.606;7.576;2023-01-29T14:12:44;99743.75;;;6.27;58.24
10587;BME280;5341;47.606;7.576;2023-01-29T14:15:21;99740.53;;;6.23;57.80
10587;BME280;5341;47.606;7.576;2023-01-29T14:17:54;99745.25;;;6.20;57.80
10587;BME280;5341;47.606;7.576;2023-01-29T14:20:33;99743.59;;;6.19;58.12
10587;BME280;5341;47.606;7.576;2023-01-29T14:23:04;99745.50;;;6.16;58.10
10587;BME280;5341;47.606;7.576;2023-01-29T14:25:34;99743.81;;;6.15;58.30
10587;BME280;5341;47.606;7.576;2023-01-29T14:28:11;99746.47;;;6.15;58.28
10587;BME280;5341;47.606;7.576;2023-01-29T14:30:45;99743.81;;;6.15;58.47
10587;BME280;5341;47.606;7.576;2023-01-29T14:33:30;99747.44;;;6.14;57.83
10587;BME280;5341;47.606;7.576;2023-01-29T14:36:05;99740.72;;;6.10;58.00
10587;BME280;5341;47.606;7.576;2023-01-29T14:38:34;99739.75;;;6.11;58.67
10587;BME280;5341;47.606;7.576;2023-01-29T14:41:06;99729.00;;;6.13;58.37